createdAt,value
2018-02-17T00:00:41.527Z,88.07
2018-02-17T00:03:09.103Z,88.03
2018-02-17T00:05:36.750Z,87.81
2018-02-17T00:08:04.323Z,87.70
2018-02-17T00:10:31.964Z,87.56
2018-02-17T00:12:59.530Z,87.53
2018-02-17T00:15:27.164Z,87.50
2018-02-17T00:17:54.752Z,87.68
2018-02-17T00:20:22.327Z,87.81
2018-02-17T00:22:49.995Z,87.90
2018-02-17T00:25:17.571Z,87.86
2018-02-17T00:27:45.191Z,87.76
2018-02-17T00:30:12.760Z,87.84
2018-02-17T00:32:40.438Z,87.73
2018-02-17T00:35:08.002Z,87.70
2018-02-17T00:37:35.590Z,87.70
2018-02-17T00:40:03.224Z,87.94
2018-02-17T00:42:30.786Z,88.06
2018-02-17T00:44:58.456Z,88.72
2018-02-17T00:47:26.079Z,88.77
2018-02-17T00:49:53.677Z,88.68
2018-02-17T00:52:21.244Z,88.63
2018-02-17T00:54:48.936Z,88.51
2018-02-17T00:57:16.514Z,88.58
2018-02-17T00:59:44.088Z,88.67
2018-02-17T01:02:11.673Z,88.92
2018-02-17T01:04:39.306Z,89.03
2018-02-17T01:07:06.990Z,89.07
2018-02-17T01:09:34.567Z,89.24
2018-02-17T01:12:02.246Z,89.40
2018-02-17T01:14:29.825Z,89.52
2018-02-17T01:16:57.444Z,89.61
2018-02-17T01:19:25.033Z,89.83
2018-02-17T01:21:52.585Z,90.04
2018-02-17T01:24:20.228Z,90.30
2018-02-17T01:26:47.863Z,90.45
2018-02-17T01:29:15.503Z,90.61
2018-02-17T01:31:43.075Z,90.49
2018-02-17T01:34:10.642Z,90.48
2018-02-17T01:36:38.221Z,90.34
2018-02-17T01:39:05.791Z,90.09
2018-02-17T01:41:33.366Z,89.94
2018-02-17T01:44:00.921Z,89.85
2018-02-17T01:46:28.546Z,89.61
2018-02-17T01:48:56.171Z,89.61
2018-02-17T01:51:23.754Z,89.72
2018-02-17T01:53:51.377Z,89.61
2018-02-17T01:56:18.951Z,89.54
2018-02-17T01:58:46.634Z,89.41
2018-02-17T02:01:14.205Z,89.59
2018-02-17T02:03:41.827Z,89.59
2018-02-17T02:06:09.398Z,89.85
2018-02-17T02:08:36.963Z,89.86
2018-02-17T02:11:04.607Z,89.57
2018-02-17T02:13:32.240Z,89.56
2018-02-17T02:15:59.818Z,89.70
2018-02-17T02:18:27.395Z,89.84
2018-02-17T02:20:54.996Z,89.91
2018-02-17T02:23:22.562Z,89.96
2018-02-17T02:25:50.192Z,90.16
2018-02-17T02:28:17.776Z,90.35
2018-02-17T02:30:45.408Z,90.32
2018-02-17T02:33:12.988Z,90.30
2018-02-17T02:35:40.621Z,90.42
2018-02-17T02:38:08.245Z,90.30
2018-02-17T02:40:35.820Z,90.33
2018-02-17T02:43:03.383Z,90.42
2018-02-17T02:45:30.970Z,90.65
2018-02-17T02:47:58.609Z,90.73
2018-02-17T02:50:26.199Z,90.65
2018-02-17T02:52:53.766Z,90.56
2018-02-17T02:55:21.400Z,90.43
2018-02-17T02:57:48.964Z,90.19
2018-02-17T03:00:16.538Z,90.03
2018-02-17T03:02:44.192Z,90.04
2018-02-17T03:05:11.754Z,90.22
2018-02-17T03:07:39.400Z,90.12
2018-02-17T03:10:06.968Z,90.11
2018-02-17T03:12:34.661Z,90.10
2018-02-17T03:15:02.336Z,90.20
2018-02-17T03:17:30.015Z,90.18
2018-02-17T03:19:57.594Z,90.08
2018-02-17T03:22:25.167Z,90.23
2018-02-17T03:24:52.751Z,90.19
2018-02-17T03:27:20.362Z,90.40
2018-02-17T03:29:48.070Z,90.66
2018-02-17T03:32:15.702Z,90.73
2018-02-17T03:34:43.337Z,90.62
2018-02-17T03:37:10.917Z,90.48
2018-02-17T03:39:38.505Z,90.40
2018-02-17T03:42:06.094Z,90.41
2018-02-17T03:44:33.671Z,90.48
2018-02-17T03:47:01.312Z,90.61
2018-02-17T03:49:28.891Z,90.55
2018-02-17T03:51:56.460Z,90.45
2018-02-17T03:54:24.047Z,90.31
2018-02-17T03:56:51.679Z,90.30
2018-02-17T03:59:19.271Z,90.49
2018-02-17T04:01:46.835Z,90.57
2018-02-17T04:04:14.458Z,90.59
2018-02-17T04:06:42.034Z,90.73
2018-02-17T04:09:09.624Z,91.03
2018-02-17T04:11:37.202Z,91.14
2018-02-17T04:14:04.768Z,91.14
2018-02-17T04:16:32.350Z,91.37
2018-02-17T04:18:59.937Z,91.67
2018-02-17T04:21:27.551Z,91.99
2018-02-17T04:23:55.099Z,92.17
2018-02-17T04:26:22.666Z,92.10
2018-02-17T04:28:50.306Z,92.16
2018-02-17T04:31:17.935Z,92.14
2018-02-17T04:33:45.576Z,91.37
2018-02-17T04:36:13.207Z,90.67
2018-02-17T04:38:40.877Z,90.28
2018-02-17T04:44:10.555Z,90.46
2018-02-17T04:46:43.830Z,90.49
2018-02-17T04:52:31.375Z,89.92
2018-02-17T04:58:18.886Z,89.50
2018-02-17T05:00:51.895Z,89.54
2018-02-17T05:06:32.330Z,88.73
2018-02-17T05:09:01.411Z,88.73
2018-02-17T05:11:29.035Z,88.42
2018-02-17T05:14:02.294Z,87.90
2018-02-17T05:16:35.537Z,87.90
2018-02-17T05:19:03.979Z,88.02
2018-02-17T05:21:48.383Z,87.73
2018-02-17T05:27:27.267Z,86.91
2018-02-17T05:29:54.884Z,86.53
2018-02-17T05:32:27.386Z,86.09
2018-02-17T05:35:01.614Z,86.12
2018-02-17T05:37:29.298Z,86.03
2018-02-17T05:43:04.962Z,85.70
2018-02-17T05:45:32.559Z,85.78
2018-02-17T05:48:02.069Z,85.67
2018-02-17T05:50:30.150Z,85.36
2018-02-17T05:52:57.722Z,84.97
2018-02-17T05:55:25.298Z,84.49
2018-02-17T05:57:52.866Z,84.28
2018-02-17T06:00:20.531Z,83.88
2018-02-17T06:02:48.094Z,83.19
2018-02-17T06:05:15.707Z,82.83
2018-02-17T06:07:43.395Z,82.99
2018-02-17T06:10:11.007Z,83.16
2018-02-17T06:12:38.733Z,83.36
2018-02-17T06:15:06.306Z,83.11
2018-02-17T06:17:33.870Z,82.86
2018-02-17T06:20:01.450Z,82.44
2018-02-17T06:22:29.252Z,81.82
2018-02-17T06:24:56.865Z,81.05
2018-02-17T06:27:24.427Z,80.68
2018-02-17T06:29:52.048Z,80.74
2018-02-17T06:32:19.609Z,80.71
2018-02-17T06:34:47.207Z,80.49
2018-02-17T06:37:14.782Z,80.70
2018-02-17T06:39:42.415Z,80.91
2018-02-17T06:42:09.995Z,80.96
2018-02-17T06:44:37.562Z,80.77
2018-02-17T06:47:05.185Z,80.38
2018-02-17T06:49:32.758Z,79.76
2018-02-17T06:52:00.378Z,79.54
2018-02-17T06:54:28.012Z,79.32
2018-02-17T06:56:55.636Z,78.25
2018-02-17T06:59:23.303Z,78.03
2018-02-17T07:01:50.947Z,77.73
2018-02-17T07:04:18.593Z,77.10
2018-02-17T07:06:46.227Z,77.30
2018-02-17T07:09:13.795Z,76.85
2018-02-17T07:11:41.432Z,76.71
2018-02-17T07:14:08.999Z,76.79
2018-02-17T07:16:36.582Z,76.49
2018-02-17T07:19:04.271Z,75.80
2018-02-17T07:21:31.986Z,76.05
2018-02-17T07:23:59.560Z,75.52
2018-02-17T07:26:27.126Z,74.65
2018-02-17T07:28:54.803Z,74.57
2018-02-17T07:31:22.379Z,74.13
2018-02-17T07:33:49.972Z,73.60
2018-02-17T07:36:17.542Z,72.21
2018-02-17T07:38:45.230Z,71.34
2018-02-17T07:41:12.806Z,70.66
2018-02-17T07:43:40.383Z,70.30
2018-02-17T07:46:08.023Z,68.79
2018-02-17T07:48:35.571Z,69.84
2018-02-17T07:51:03.147Z,69.13
2018-02-17T07:53:30.775Z,68.41
2018-02-17T07:55:58.403Z,68.15
2018-02-17T07:58:25.978Z,67.65
2018-02-17T08:00:53.616Z,67.74
2018-02-17T08:03:21.194Z,67.09
2018-02-17T08:05:48.769Z,68.19
2018-02-17T08:08:16.413Z,66.92
2018-02-17T08:10:43.979Z,66.15
2018-02-17T08:13:11.673Z,65.74
2018-02-17T08:15:39.238Z,65.71
2018-02-17T08:18:06.802Z,65.36
2018-02-17T08:20:34.393Z,65.23
2018-02-17T08:23:01.967Z,65.30
2018-02-17T08:25:29.542Z,65.80
2018-02-17T08:27:57.180Z,65.29
2018-02-17T08:30:24.838Z,64.84
2018-02-17T08:32:52.475Z,64.66
2018-02-17T08:35:20.105Z,64.44
2018-02-17T08:37:47.679Z,64.92
2018-02-17T08:40:15.311Z,65.49
2018-02-17T08:42:42.886Z,66.31
2018-02-17T08:45:10.448Z,65.00
2018-02-17T08:47:38.079Z,63.61
2018-02-17T08:50:05.642Z,63.52
2018-02-17T08:52:33.320Z,64.48
2018-02-17T08:55:00.896Z,64.22
2018-02-17T08:57:28.536Z,65.02
2018-02-17T08:59:56.259Z,64.50
2018-02-17T09:02:23.830Z,64.21
2018-02-17T09:04:51.443Z,63.32
2018-02-17T09:07:19.019Z,63.61
2018-02-17T09:09:46.647Z,63.01
2018-02-17T09:12:14.258Z,63.56
2018-02-17T09:14:41.837Z,63.23
2018-02-17T09:17:09.436Z,63.18
2018-02-17T09:19:37.004Z,61.98
2018-02-17T09:22:04.646Z,61.43
2018-02-17T09:24:32.227Z,60.57
2018-02-17T09:26:59.833Z,60.19
2018-02-17T09:29:27.479Z,60.43
2018-02-17T09:31:55.050Z,60.36
2018-02-17T09:34:22.684Z,59.24
2018-02-17T09:36:50.319Z,58.89
2018-02-17T09:39:17.883Z,57.15
2018-02-17T09:44:44.425Z,59.26
2018-02-17T09:47:12.067Z,57.90
2018-02-17T09:49:39.652Z,56.48
2018-02-17T09:52:07.288Z,55.40
2018-02-17T09:54:34.862Z,55.25
2018-02-17T09:57:02.439Z,55.72
2018-02-17T09:59:30.076Z,56.87
2018-02-17T10:01:57.664Z,54.81
2018-02-17T10:04:25.247Z,54.76
2018-02-17T10:06:52.865Z,54.60
2018-02-17T10:09:20.481Z,54.22
2018-02-17T10:11:48.054Z,54.80
2018-02-17T10:14:15.691Z,52.51
2018-02-17T10:16:43.327Z,52.54
2018-02-17T10:19:10.902Z,51.66
2018-02-17T10:21:38.484Z,50.31
2018-02-17T10:24:06.037Z,48.26
2018-02-17T10:26:33.672Z,48.63
2018-02-17T10:29:01.308Z,47.82
2018-02-17T10:31:28.887Z,45.84
2018-02-17T10:33:56.480Z,45.55
2018-02-17T10:36:24.107Z,45.04
2018-02-17T10:38:51.696Z,44.49
2018-02-17T10:41:19.314Z,44.15
2018-02-17T10:43:46.927Z,45.96
2018-02-17T10:46:14.511Z,44.44
2018-02-17T10:48:42.162Z,44.66
2018-02-17T10:51:09.755Z,44.99
2018-02-17T10:53:37.326Z,44.29
2018-02-17T10:56:04.911Z,44.43
2018-02-17T10:58:32.470Z,43.89
2018-02-17T11:01:00.159Z,43.49
2018-02-17T11:03:27.732Z,42.71
2018-02-17T11:05:55.317Z,41.21
2018-02-17T11:08:22.960Z,39.77
2018-02-17T11:10:50.525Z,38.21
2018-02-17T11:13:18.136Z,39.55
2018-02-17T11:18:18.475Z,40.80
2018-02-17T11:20:46.018Z,39.98
2018-02-17T11:23:13.564Z,41.22
2018-02-17T11:25:41.127Z,40.30
2018-02-17T11:28:08.674Z,41.03
2018-02-17T11:30:36.226Z,41.86
2018-02-17T11:33:03.775Z,42.05
2018-02-17T11:35:31.394Z,40.50
2018-02-17T11:37:58.943Z,40.36
2018-02-17T11:40:26.486Z,40.21
2018-02-17T11:42:54.222Z,42.88
2018-02-17T11:45:21.932Z,41.52
2018-02-17T11:47:49.655Z,40.80
2018-02-17T11:50:17.375Z,39.93
2018-02-17T11:52:45.191Z,39.08
2018-02-17T11:55:12.930Z,38.05
2018-02-17T11:57:40.677Z,39.17
2018-02-17T12:00:08.397Z,40.71
2018-02-17T12:02:36.117Z,40.74
2018-02-17T12:05:03.847Z,40.60
2018-02-17T12:07:31.548Z,39.19
2018-02-17T12:09:59.328Z,39.79
2018-02-17T12:12:27.028Z,40.75
2018-02-17T12:14:54.738Z,41.68
2018-02-17T12:17:22.483Z,41.03
2018-02-17T12:19:50.206Z,42.66
2018-02-17T12:22:17.951Z,43.68
2018-02-17T12:24:45.696Z,45.65
2018-02-17T12:27:13.449Z,46.47
2018-02-17T12:29:41.170Z,48.32
2018-02-17T12:32:08.892Z,49.45
2018-02-17T12:34:36.623Z,48.49
2018-02-17T12:37:04.345Z,50.80
2018-02-17T12:39:32.072Z,51.14
2018-02-17T12:41:59.796Z,52.13
2018-02-17T12:44:27.403Z,52.42
2018-02-17T12:46:55.034Z,53.14
2018-02-17T12:49:22.606Z,53.39
2018-02-17T12:51:50.195Z,52.76
2018-02-17T12:54:17.827Z,52.59
2018-02-17T12:56:45.412Z,53.40
2018-02-17T12:59:12.987Z,53.13
2018-02-17T13:01:40.670Z,52.45
2018-02-17T13:04:08.243Z,52.37
2018-02-17T13:06:35.880Z,52.94
2018-02-17T13:09:03.538Z,52.65
2018-02-17T13:11:31.107Z,53.13
2018-02-17T13:13:58.733Z,53.88
2018-02-17T13:16:26.334Z,53.96
2018-02-17T13:18:53.963Z,53.35
2018-02-17T13:21:21.589Z,53.10
2018-02-17T13:23:49.158Z,53.57
2018-02-17T13:26:16.789Z,52.39
2018-02-17T13:28:44.371Z,53.64
2018-02-17T13:31:11.951Z,52.60
2018-02-17T13:33:39.519Z,53.11
2018-02-17T13:36:07.179Z,52.80
2018-02-17T13:38:34.751Z,52.89
2018-02-17T13:41:02.318Z,53.55
2018-02-17T13:43:29.921Z,53.59
2018-02-17T13:45:57.559Z,51.79
2018-02-17T13:48:25.133Z,51.78
2018-02-17T13:50:52.760Z,53.16
2018-02-17T13:53:20.383Z,53.29
2018-02-17T13:55:48.021Z,53.87
2018-02-17T13:58:15.646Z,52.76
2018-02-17T14:00:43.227Z,54.47
2018-02-17T14:03:10.794Z,53.37
2018-02-17T14:05:38.418Z,53.11
2018-02-17T14:08:05.999Z,54.73
2018-02-17T14:10:33.572Z,54.17
2018-02-17T14:13:01.152Z,54.25
2018-02-17T14:15:28.708Z,54.38
2018-02-17T14:17:56.381Z,55.52
2018-02-17T14:20:23.954Z,55.34
2018-02-17T14:22:51.522Z,54.56
2018-02-17T14:25:19.199Z,55.08
2018-02-17T14:27:46.758Z,55.68
2018-02-17T14:30:14.389Z,55.54
2018-02-17T14:32:41.974Z,55.36
2018-02-17T14:35:09.540Z,56.03
2018-02-17T14:37:37.268Z,56.38
2018-02-17T14:40:04.870Z,56.94
2018-02-17T14:42:32.499Z,57.59
2018-02-17T14:45:00.076Z,57.48
2018-02-17T14:47:27.711Z,58.13
2018-02-17T14:49:55.308Z,57.63
2018-02-17T14:52:22.947Z,57.87
2018-02-17T14:54:50.567Z,58.29
2018-02-17T14:57:18.142Z,58.95
2018-02-17T14:59:45.766Z,59.43
2018-02-17T15:02:13.416Z,58.96
2018-02-17T15:04:40.986Z,59.27
2018-02-17T15:07:08.563Z,59.53
2018-02-17T15:09:36.132Z,59.69
2018-02-17T15:12:03.734Z,59.62
2018-02-17T15:14:31.306Z,60.13
2018-02-17T15:16:58.987Z,60.05
2018-02-17T15:19:26.558Z,59.93
2018-02-17T15:21:54.110Z,60.23
2018-02-17T15:24:21.699Z,60.58
2018-02-17T15:26:49.270Z,60.54
2018-02-17T15:29:17.055Z,60.98
2018-02-17T15:31:44.633Z,61.26
2018-02-17T15:34:12.275Z,61.47
2018-02-17T15:36:39.843Z,61.83
2018-02-17T15:39:07.490Z,62.24
2018-02-17T15:41:35.073Z,62.75
2018-02-17T15:44:02.655Z,62.89
2018-02-17T15:46:30.236Z,63.08
2018-02-17T15:48:57.888Z,63.44
2018-02-17T15:51:25.525Z,64.01
2018-02-17T15:53:53.090Z,64.97
2018-02-17T15:56:20.810Z,65.70
2018-02-17T15:58:48.775Z,66.44
2018-02-17T16:01:16.527Z,67.16
2018-02-17T16:03:44.173Z,67.73
2018-02-17T16:06:12.123Z,68.23
2018-02-17T16:08:39.815Z,68.43
2018-02-17T16:11:07.455Z,68.54
2018-02-17T16:13:35.092Z,68.44
2018-02-17T16:16:02.679Z,68.57
2018-02-17T16:18:30.252Z,68.80
2018-02-17T16:20:57.890Z,69.27
2018-02-17T16:23:25.523Z,69.48
2018-02-17T16:25:53.154Z,69.82
2018-02-17T16:28:20.788Z,70.59
2018-02-17T16:30:48.431Z,70.58
2018-02-17T16:33:16.079Z,70.75
2018-02-17T16:35:43.655Z,71.27
2018-02-17T16:38:11.310Z,71.43
2018-02-17T16:40:38.948Z,71.40
2018-02-17T16:43:06.571Z,71.93
2018-02-17T16:45:34.234Z,71.81
2018-02-17T16:48:01.869Z,71.63
2018-02-17T16:50:29.498Z,71.51
2018-02-17T16:52:57.145Z,71.30
2018-02-17T16:55:24.903Z,71.48
2018-02-17T16:57:53.893Z,71.20
2018-02-17T17:00:21.475Z,70.57
2018-02-17T17:02:49.057Z,70.78
2018-02-17T17:05:16.677Z,71.23
2018-02-17T17:07:44.312Z,71.70
2018-02-17T17:10:11.996Z,71.20
2018-02-17T17:12:39.677Z,71.60
2018-02-17T17:15:07.239Z,71.71
2018-02-17T17:17:34.797Z,71.87
2018-02-17T17:20:02.374Z,72.23
2018-02-17T17:22:29.995Z,72.87
2018-02-17T17:24:57.922Z,72.77
2018-02-17T17:27:25.503Z,73.01
2018-02-17T17:29:53.100Z,73.41
2018-02-17T17:32:20.740Z,73.96
2018-02-17T17:34:48.380Z,74.11
2018-02-17T17:37:16.010Z,74.56
2018-02-17T17:39:43.653Z,74.79
2018-02-17T17:42:11.288Z,75.07
2018-02-17T17:44:38.962Z,75.26
2018-02-17T17:47:06.515Z,75.76
2018-02-17T17:49:34.098Z,76.37
2018-02-17T17:52:01.680Z,76.40
2018-02-17T17:54:29.332Z,76.45
2018-02-17T17:56:56.938Z,77.01
2018-02-17T17:59:24.522Z,76.97
2018-02-17T18:01:52.178Z,76.91
2018-02-17T18:04:19.836Z,77.00
2018-02-17T18:06:47.491Z,77.15
2018-02-17T18:09:15.128Z,77.44
2018-02-17T18:11:42.848Z,77.60
2018-02-17T18:14:10.423Z,77.55
2018-02-17T18:16:38.058Z,77.58
2018-02-17T18:19:05.648Z,77.74
2018-02-17T18:21:33.231Z,77.78
2018-02-17T18:24:00.894Z,77.88
2018-02-17T18:26:28.474Z,77.74
2018-02-17T18:28:56.163Z,77.91
2018-02-17T18:31:23.793Z,77.79
2018-02-17T18:33:51.376Z,77.88
2018-02-17T18:36:19.011Z,77.91
2018-02-17T18:38:46.597Z,78.19
2018-02-17T18:41:14.235Z,77.99
2018-02-17T18:43:41.816Z,78.18
2018-02-17T18:46:09.556Z,78.17
2018-02-17T18:48:37.197Z,78.20
2018-02-17T18:51:04.772Z,78.53
2018-02-17T18:53:32.357Z,78.70
2018-02-17T18:55:59.997Z,79.27
2018-02-17T18:58:27.570Z,79.26
2018-02-17T19:00:55.193Z,79.48
2018-02-17T19:03:22.859Z,79.69
2018-02-17T19:05:50.435Z,80.01
2018-02-17T19:08:18.064Z,80.39
2018-02-17T19:10:45.689Z,80.48
2018-02-17T19:13:13.303Z,80.64
2018-02-17T19:15:40.897Z,81.06
2018-02-17T19:18:08.530Z,80.71
2018-02-17T19:20:36.227Z,80.89
2018-02-17T19:23:03.803Z,80.79
2018-02-17T19:25:31.380Z,80.83
2018-02-17T19:27:58.982Z,81.00
2018-02-17T19:30:26.559Z,80.78
2018-02-17T19:32:54.195Z,80.97
2018-02-17T19:35:21.766Z,81.21
2018-02-17T19:37:49.410Z,81.62
2018-02-17T19:40:17.051Z,81.33
2018-02-17T19:42:44.635Z,81.64
2018-02-17T19:45:12.292Z,81.85
2018-02-17T19:47:39.923Z,81.88
2018-02-17T19:50:07.496Z,81.85
2018-02-17T19:52:35.067Z,81.83
2018-02-17T19:55:02.813Z,81.52
2018-02-17T19:57:30.428Z,81.49
2018-02-17T19:59:57.982Z,81.56
2018-02-17T20:02:25.588Z,81.68
2018-02-17T20:04:53.177Z,81.74
2018-02-17T20:07:20.751Z,81.49
2018-02-17T20:09:48.337Z,81.62
2018-02-17T20:12:15.967Z,81.74
2018-02-17T20:14:43.556Z,82.39
2018-02-17T20:17:11.129Z,82.45
2018-02-17T20:19:38.722Z,82.43
2018-02-17T20:22:06.295Z,82.37
2018-02-17T20:24:33.877Z,82.40
2018-02-17T20:27:01.464Z,82.48
2018-02-17T20:29:29.110Z,82.37
2018-02-17T20:31:56.690Z,82.40
2018-02-17T20:34:24.305Z,82.69
2018-02-17T20:36:51.909Z,82.52
2018-02-17T20:39:19.480Z,82.36
2018-02-17T20:41:47.057Z,82.10
2018-02-17T20:44:14.682Z,81.91
2018-02-17T20:46:42.319Z,81.95
2018-02-17T20:49:09.903Z,82.07
2018-02-17T20:51:37.481Z,82.06
2018-02-17T20:54:05.055Z,81.34
2018-02-17T20:56:32.680Z,81.11
2018-02-17T20:59:00.257Z,80.90
2018-02-17T21:01:27.955Z,80.76
2018-02-17T21:03:55.574Z,80.76
2018-02-17T21:06:23.144Z,80.57
2018-02-17T21:08:50.719Z,80.41
2018-02-17T21:11:18.310Z,80.14
2018-02-17T21:13:46.718Z,80.09
2018-02-17T21:16:14.298Z,80.05
2018-02-17T21:18:41.912Z,79.73
2018-02-17T21:21:09.594Z,79.54
2018-02-17T21:23:37.228Z,79.24
2018-02-17T21:26:04.830Z,79.24
2018-02-17T21:28:32.412Z,79.18
2018-02-17T21:31:00.004Z,79.10
2018-02-17T21:33:27.586Z,78.98
2018-02-17T21:35:55.204Z,78.86
2018-02-17T21:38:22.882Z,78.88
2018-02-17T21:40:50.446Z,78.93
2018-02-17T21:43:18.049Z,79.06
2018-02-17T21:45:45.645Z,79.32
2018-02-17T21:48:13.275Z,79.18
2018-02-17T21:50:40.911Z,79.16
2018-02-17T21:53:08.535Z,79.33
2018-02-17T21:55:36.235Z,79.51
2018-02-17T21:58:03.859Z,79.59
2018-02-17T22:00:31.494Z,79.69
2018-02-17T22:02:59.065Z,79.57
2018-02-17T22:05:26.647Z,79.57
2018-02-17T22:07:54.238Z,79.45
2018-02-17T22:10:21.803Z,79.55
2018-02-17T22:12:49.431Z,79.55
2018-02-17T22:15:17.008Z,79.32
2018-02-17T22:17:44.639Z,79.11
2018-02-17T22:20:12.236Z,79.15
2018-02-17T22:22:39.870Z,79.17
2018-02-17T22:25:07.459Z,79.08
2018-02-17T22:27:35.025Z,78.99
2018-02-17T22:30:02.680Z,78.97
2018-02-17T22:32:30.304Z,78.84
2018-02-17T22:34:57.927Z,78.86
2018-02-17T22:37:25.563Z,79.04
2018-02-17T22:39:53.195Z,79.03
2018-02-17T22:42:20.778Z,78.91
2018-02-17T22:44:48.332Z,78.88
2018-02-17T22:47:16.015Z,78.91
2018-02-17T22:49:43.646Z,78.96
2018-02-17T22:52:11.214Z,78.91
2018-02-17T22:54:38.795Z,78.73
2018-02-17T22:57:06.373Z,78.45
2018-02-17T22:59:33.955Z,78.25
2018-02-17T23:02:01.524Z,77.97
2018-02-17T23:04:29.216Z,78.02
2018-02-17T23:06:56.847Z,77.91
2018-02-17T23:09:24.475Z,77.81
2018-02-17T23:11:52.057Z,77.58
2018-02-17T23:14:19.691Z,77.36
2018-02-17T23:16:47.266Z,77.52
2018-02-17T23:19:14.854Z,77.33
2018-02-17T23:21:42.542Z,77.12
2018-02-17T23:24:10.192Z,77.23
2018-02-17T23:26:37.758Z,77.03
2018-02-17T23:29:05.396Z,77.12
2018-02-17T23:31:32.964Z,77.22
2018-02-17T23:34:00.609Z,77.31
2018-02-17T23:36:28.187Z,77.13
2018-02-17T23:38:55.810Z,77.28
2018-02-17T23:41:23.420Z,77.44
2018-02-17T23:43:51.048Z,77.50
2018-02-17T23:46:18.628Z,77.73
2018-02-17T23:48:46.244Z,77.76
2018-02-17T23:51:13.824Z,77.82
2018-02-17T23:53:41.387Z,77.86
2018-02-17T23:56:09.021Z,77.88
2018-02-17T23:58:36.605Z,78.07
